Terminal Aerodrome Forecast
Issued by NWS Charleston, WV

Home | Current Version | Previous Version | Text Only | Print | Product List | Glossary On
Versions: 1 2 3 4 5 6 7 8 9 10 11 12 13 14 15 16 17 18 19 20 21 22 23 24
000
FTUS41 KRLX 031100
TAFHTS
TAF
KHTS 031121Z 0312/0412 10005KT P6SM BKN070
     FM031300 13005KT 6SM -FZRA OVC050
     FM031400 15005KT P6SM -SHRA OVC040
     FM031500 15006KT P6SM -SHRA OVC025
     FM032000 18010G16KT P6SM OVC020
     FM040500 21009G14KT 2SM RA OVC008
     FM040800 28008G16KT 1SM +RA OVC008=

USA.gov is the U.S. government's official web portal to all federal, state and local government web resources and services.